Pilot Boat Dalmar I — HKOZ7 — position and weather

sailwx.info

Track history (hours):
 
Tides and Currents Weather Stations Pressure Air Temp Water Temp Dewpoint Dewpoint Depression Visibility Wind Speed Wind Dir Waves Ship Positions

Pilot Boat Dalmar I

Last reported at 2018-Jan-27 20:49 UTC. Time now 2018-Feb-22 05:06 UTC.
Position N 10°22' W 075°31'.
Warning: this ship's position is 25 days out of date.

Length 10 m.

Type: Pilot. MMSI: 730151274.

Date/timePositionNaut miles runAvg speedWind from/ knotsBaromVisibWave heightAir tempDewpointWater temp
2018-Jan-27 20:49N 10°22' W 075°31'0 0.0
2018-Jan-27 20:20N 10°22' W 075°31'1 0.2
2018-Jan-27 13:42N 10°21' W 075°31'211.4
2018-Jan-27 13:30N 10°18' W 075°30'0 0.3
2018-Jan-27 12:58N 10°18' W 075°31'3 3.7
2018-Jan-27 12:06N 10°20' W 075°33'2 0.1
2018-Jan-26 04:15N 10°19' W 075°32'1 0.6
2018-Jan-26 01:59N 10°21' W 075°31'1 0.1
2018-Jan-25 20:55N 10°21' W 075°32'2 4.8
2018-Jan-25 20:27N 10°19' W 075°31'612.4
2018-Jan-25 19:59N 10°24' W 075°33'  
2018-Jan-21 11:26N 10°23' W 075°32'4 9.1
2018-Jan-21 11:00N 10°19' W 075°32'2 0.7
2018-Jan-21 08:06N 10°19' W 075°34'1 6.0
2018-Jan-21 07:58N 10°19' W 075°35'4 2.8
2018-Jan-21 06:30N 10°18' W 075°31'0 0.0
2018-Jan-21 05:52N 10°18' W 075°31'3 1.5
2018-Jan-21 03:31N 10°20' W 075°34'119.9
2018-Jan-21 03:29N 10°19' W 075°34'1 0.9
2018-Jan-21 02:52N 10°19' W 075°35'0 0.0
2018-Jan-21 02:28N 10°19' W 075°35'0 0.0
2018-Jan-21 01:58N 10°19' W 075°35'0 0.0
2018-Jan-21 01:29N 10°19' W 075°35'0 0.0
2018-Jan-21 00:56N 10°19' W 075°35'0 0.2
2018-Jan-20 22:31N 10°19' W 075°34'1 0.2
2018-Jan-20 16:08N 10°19' W 075°33'1 1.5
2018-Jan-20 15:35N 10°20' W 075°33'220.8
2018-Jan-20 15:28N 10°22' W 075°31'2 1.9
2018-Jan-20 14:22N 10°20' W 075°33'1 0.4
2018-Jan-20 11:30N 10°19' W 075°34'1 0.4
2018-Jan-20 09:17N 10°20' W 075°33'2 0.6
2018-Jan-20 05:27N 10°20' W 075°31'4 0.5
2018-Jan-19 22:06N 10°19' W 075°35'0 0.9
2018-Jan-19 21:57N 10°19' W 075°35'0 0.1
2018-Jan-19 21:30N 10°19' W 075°35'2 0.3
2018-Jan-19 14:34N 10°20' W 075°33'223.3
2018-Jan-19 14:30N 10°19' W 075°34'0 0.1
2018-Jan-19 10:49N 10°19' W 075°34'2 0.3
2018-Jan-19 05:52N 10°20' W 075°33'1 0.1
2018-Jan-18 20:50N 10°20' W 075°32'1 1.9
2018-Jan-18 20:29N 10°19' W 075°31'3 1.0
2018-Jan-18 17:34N 10°22' W 075°31'5 0.8
2018-Jan-18 11:22N 10°19' W 075°35'  
Track history (hours):
 
Tides and Currents Weather Stations Pressure Air Temp Water Temp Dewpoint Dewpoint Depression Visibility Wind Speed Wind Dir Waves Ship Positions

Pilot Boat Dalmar I

Last reported at 2018-Jan-27 20:49 UTC. Time now 2018-Feb-22 05:06 UTC.
Position N 10°22' W 075°31'.
Warning: this ship's position is 25 days out of date.

Length 10 m.

Type: Pilot. MMSI: 730151274.

Date/timePositionNaut miles runAvg speedWind from/ knotsBaromVisibWave heightAir tempDewpointWater temp
2018-Jan-27 20:49N 10°22' W 075°31'0 0.0
2018-Jan-27 20:20N 10°22' W 075°31'1 0.2
2018-Jan-27 13:42N 10°21' W 075°31'211.4
2018-Jan-27 13:30N 10°18' W 075°30'0 0.3
2018-Jan-27 12:58N 10°18' W 075°31'3 3.7
2018-Jan-27 12:06N 10°20' W 075°33'2 0.1
2018-Jan-26 04:15N 10°19' W 075°32'1 0.6
2018-Jan-26 01:59N 10°21' W 075°31'1 0.1
2018-Jan-25 20:55N 10°21' W 075°32'2 4.8
2018-Jan-25 20:27N 10°19' W 075°31'612.4
2018-Jan-25 19:59N 10°24' W 075°33'  
2018-Jan-21 11:26N 10°23' W 075°32'4 9.1
2018-Jan-21 11:00N 10°19' W 075°32'2 0.7
2018-Jan-21 08:06N 10°19' W 075°34'1 6.0
2018-Jan-21 07:58N 10°19' W 075°35'4 2.8
2018-Jan-21 06:30N 10°18' W 075°31'0 0.0
2018-Jan-21 05:52N 10°18' W 075°31'3 1.5
2018-Jan-21 03:31N 10°20' W 075°34'119.9
2018-Jan-21 03:29N 10°19' W 075°34'1 0.9
2018-Jan-21 02:52N 10°19' W 075°35'0 0.0
2018-Jan-21 02:28N 10°19' W 075°35'0 0.0
2018-Jan-21 01:58N 10°19' W 075°35'0 0.0
2018-Jan-21 01:29N 10°19' W 075°35'0 0.0
2018-Jan-21 00:56N 10°19' W 075°35'0 0.2
2018-Jan-20 22:31N 10°19' W 075°34'1 0.2
2018-Jan-20 16:08N 10°19' W 075°33'1 1.5
2018-Jan-20 15:35N 10°20' W 075°33'220.8
2018-Jan-20 15:28N 10°22' W 075°31'2 1.9
2018-Jan-20 14:22N 10°20' W 075°33'1 0.4
2018-Jan-20 11:30N 10°19' W 075°34'1 0.4
2018-Jan-20 09:17N 10°20' W 075°33'2 0.6
2018-Jan-20 05:27N 10°20' W 075°31'4 0.5
2018-Jan-19 22:06N 10°19' W 075°35'0 0.9
2018-Jan-19 21:57N 10°19' W 075°35'0 0.1
2018-Jan-19 21:30N 10°19' W 075°35'2 0.3
2018-Jan-19 14:34N 10°20' W 075°33'223.3
2018-Jan-19 14:30N 10°19' W 075°34'0 0.1
2018-Jan-19 10:49N 10°19' W 075°34'2 0.3
2018-Jan-19 05:52N 10°20' W 075°33'1 0.1
2018-Jan-18 20:50N 10°20' W 075°32'1 1.9
2018-Jan-18 20:29N 10°19' W 075°31'3 1.0
2018-Jan-18 17:34N 10°22' W 075°31'5 0.8
2018-Jan-18 11:22N 10°19' W 075°35'  

Dump ship's entire track history